sensor_id;sensor_type;location;lat;lon;timestamp;temperature;humidity
1992;DHT22;997;48.448;8.924;2022-11-03T04:02:44;6.40;99.90
1992;DHT22;997;48.448;8.924;2022-11-03T04:05:10;6.30;99.90
1992;DHT22;997;48.448;8.924;2022-11-03T04:07:36;6.30;99.90
1992;DHT22;997;48.448;8.924;2022-11-03T04:10:17;6.30;99.90
1992;DHT22;997;48.448;8.924;2022-11-03T04:12:44;6.20;99.90
1992;DHT22;997;48.448;8.924;2022-11-03T04:15:29;6.20;99.90
1992;DHT22;997;48.448;8.924;2022-11-03T04:18:13;6.20;99.90
1992;DHT22;997;48.448;8.924;2022-11-03T04:20:58;6.10;99.90
1992;DHT22;997;48.448;8.924;2022-11-03T04:23:42;6.00;99.90
1992;DHT22;997;48.448;8.924;2022-11-03T04:26:16;6.00;99.90
1992;DHT22;997;48.448;8.924;2022-11-03T04:28:43;6.00;99.90
1992;DHT22;997;48.448;8.924;2022-11-03T04:31:13;6.00;99.90
1992;DHT22;997;48.448;8.924;2022-11-03T04:33:40;6.00;99.90
1992;DHT22;997;48.448;8.924;2022-11-03T04:36:24;6.00;99.90
1992;DHT22;997;48.448;8.924;2022-11-03T04:38:51;6.00;99.90
1992;DHT22;997;48.448;8.924;2022-11-03T04:41:20;5.90;99.90
1992;DHT22;997;48.448;8.924;2022-11-03T04:43:47;5.90;99.90
1992;DHT22;997;48.448;8.924;2022-11-03T04:46:26;5.80;99.90
1992;DHT22;997;48.448;8.924;2022-11-03T04:48:53;5.70;99.90
1992;DHT22;997;48.448;8.924;2022-11-03T04:51:23;5.60;99.90
1992;DHT22;997;48.448;8.924;2022-11-03T04:53:54;5.60;99.90
1992;DHT22;997;48.448;8.924;2022-11-03T04:56:22;5.40;99.90
1992;DHT22;997;48.448;8.924;2022-11-03T04:58:49;5.50;99.90
1992;DHT22;997;48.448;8.924;2022-11-03T05:01:20;5.50;99.90
1992;DHT22;997;48.448;8.924;2022-11-03T05:03:51;5.50;99.90
1992;DHT22;997;48.448;8.924;2022-11-03T05:06:27;5.50;99.90
1992;DHT22;997;48.448;8.924;2022-11-03T05:08:59;5.50;99.90
1992;DHT22;997;48.448;8.924;2022-11-03T05:11:36;5.50;99.90
1992;DHT22;997;48.448;8.924;2022-11-03T05:14:12;5.60;99.90
1992;DHT22;997;48.448;8.924;2022-11-03T05:16:38;5.70;99.90
1992;DHT22;997;48.448;8.924;2022-11-03T05:19:14;5.60;99.90
1992;DHT22;997;48.448;8.924;2022-11-03T05:21:42;5.60;99.90
1992;DHT22;997;48.448;8.924;2022-11-03T05:24:12;5.50;99.90
1992;DHT22;997;48.448;8.924;2022-11-03T05:26:39;5.50;99.90
1992;DHT22;997;48.448;8.924;2022-11-03T05:31:34;5.50;99.90
1992;DHT22;997;48.448;8.924;2022-11-03T05:34:05;5.50;99.90
1992;DHT22;997;48.448;8.924;2022-11-03T05:36:37;5.60;99.90
1992;DHT22;997;48.448;8.924;2022-11-03T05:39:29;5.50;99.90
1992;DHT22;997;48.448;8.924;2022-11-03T05:41:57;5.50;99.90
1992;DHT22;997;48.448;8.924;2022-11-03T05:44:33;5.50;99.90
1992;DHT22;997;48.448;8.924;2022-11-03T05:47:02;5.50;99.90
1992;DHT22;997;48.448;8.924;2022-11-03T05:49:28;5.50;99.90
1992;DHT22;997;48.448;8.924;2022-11-03T05:51:54;5.60;99.90
1992;DHT22;997;48.448;8.924;2022-11-03T05:54:23;5.50;99.90
1992;DHT22;997;48.448;8.924;2022-11-03T05:56:51;5.50;99.90
1992;DHT22;997;48.448;8.924;2022-11-03T05:59:20;5.50;99.90
1992;DHT22;997;48.448;8.924;2022-11-03T06:01:47;5.50;99.90
1992;DHT22;997;48.448;8.924;2022-11-03T06:06:51;5.50;99.90
1992;DHT22;997;48.448;8.924;2022-11-03T06:09:22;5.60;99.90
1992;DHT22;997;48.448;8.924;2022-11-03T06:11:52;5.60;99.90
1992;DHT22;997;48.448;8.924;2022-11-03T06:16:48;5.60;99.90
1992;DHT22;997;48.448;8.924;2022-11-03T06:19:28;5.60;99.90
1992;DHT22;997;48.448;8.924;2022-11-03T06:22:09;5.70;99.90
1992;DHT22;997;48.448;8.924;2022-11-03T06:24:35;5.80;99.90
1992;DHT22;997;48.448;8.924;2022-11-03T06:27:01;5.80;99.90
1992;DHT22;997;48.448;8.924;2022-11-03T06:29:30;5.70;99.90
1992;DHT22;997;48.448;8.924;2022-11-03T06:31:57;5.70;99.90
1992;DHT22;997;48.448;8.924;2022-11-03T06:34:48;5.70;99.90
1992;DHT22;997;48.448;8.924;2022-11-03T06:37:23;5.60;99.90
1992;DHT22;997;48.448;8.924;2022-11-03T06:39:51;5.60;99.90
1992;DHT22;997;48.448;8.924;2022-11-03T06:42:20;5.50;99.90
1992;DHT22;997;48.448;8.924;2022-11-03T06:44:48;5.50;99.90
1992;DHT22;997;48.448;8.924;2022-11-03T06:47:22;5.40;99.90
1992;DHT22;997;48.448;8.924;2022-11-03T06:49:57;5.30;99.90
1992;DHT22;997;48.448;8.924;2022-11-03T06:52:31;5.20;99.90
1992;DHT22;997;48.448;8.924;2022-11-03T06:55:20;5.20;99.90
1992;DHT22;997;48.448;8.924;2022-11-03T06:57:47;5.30;99.90
1992;DHT22;997;48.448;8.924;2022-11-03T07:05:47;5.30;99.90
1992;DHT22;997;48.448;8.924;2022-11-03T07:08:20;5.40;99.90
1992;DHT22;997;48.448;8.924;2022-11-03T07:10:46;5.40;99.90
1992;DHT22;997;48.448;8.924;2022-11-03T07:13:16;5.40;99.90
1992;DHT22;997;48.448;8.924;2022-11-03T07:15:43;5.50;99.90
1992;DHT22;997;48.448;8.924;2022-11-03T07:18:33;5.60;99.90
1992;DHT22;997;48.448;8.924;2022-11-03T07:21:19;5.70;99.90
1992;DHT22;997;48.448;8.924;2022-11-03T07:23:46;5.70;99.90
1992;DHT22;997;48.448;8.924;2022-11-03T07:26:13;5.80;99.90
1992;DHT22;997;48.448;8.924;2022-11-03T07:28:39;5.80;99.90
1992;DHT22;997;48.448;8.924;2022-11-03T07:31:22;5.90;99.90
1992;DHT22;997;48.448;8.924;2022-11-03T07:33:52;6.00;99.90
1992;DHT22;997;48.448;8.924;2022-11-03T07:36:21;6.10;99.90
1992;DHT22;997;48.448;8.924;2022-11-03T07:38:50;6.20;99.90
1992;DHT22;997;48.448;8.924;2022-11-03T07:41:22;6.30;99.90
1992;DHT22;997;48.448;8.924;2022-11-03T07:43:53;6.40;99.90
1992;DHT22;997;48.448;8.924;2022-11-03T07:46:20;6.50;99.90
1992;DHT22;997;48.448;8.924;2022-11-03T07:48:48;6.60;99.90
1992;DHT22;997;48.448;8.924;2022-11-03T07:51:26;6.60;99.90
1992;DHT22;997;48.448;8.924;2022-11-03T07:57:31;6.80;99.90
1992;DHT22;997;48.448;8.924;2022-11-03T07:59:35;6.90;99.90
1992;DHT22;997;48.448;8.924;2022-11-03T08:02:05;7.10;99.90
1992;DHT22;997;48.448;8.924;2022-11-03T08:04:36;7.30;99.90
1992;DHT22;997;48.448;8.924;2022-11-03T08:07:02;7.40;99.90
1992;DHT22;997;48.448;8.924;2022-11-03T08:09:27;7.40;99.90
1992;DHT22;997;48.448;8.924;2022-11-03T08:11:53;7.50;99.90
1992;DHT22;997;48.448;8.924;2022-11-03T08:14:19;7.50;99.90
1992;DHT22;997;48.448;8.924;2022-11-03T08:16:44;7.60;99.90
1992;DHT22;997;48.448;8.924;2022-11-03T08:19:10;7.60;99.90
1992;DHT22;997;48.448;8.924;2022-11-03T08:21:36;7.80;99.90
1992;DHT22;997;48.448;8.924;2022-11-03T08:24:02;7.80;99.90
1992;DHT22;997;48.448;8.924;2022-11-03T08:26:28;7.90;99.90
1992;DHT22;997;48.448;8.924;2022-11-03T08:28:54;7.90;99.90
1992;DHT22;997;48.448;8.924;2022-11-03T08:31:19;7.90;99.90
1992;DHT22;997;48.448;8.924;2022-11-03T08:33:45;7.90;99.90
1992;DHT22;997;48.448;8.924;2022-11-03T08:36:11;8.00;99.90
1992;DHT22;997;48.448;8.924;2022-11-03T08:38:37;8.10;99.90
1992;DHT22;997;48.448;8.924;2022-11-03T08:41:03;8.20;99.90
1992;DHT22;997;48.448;8.924;2022-11-03T08:43:29;8.20;99.90
1992;DHT22;997;48.448;8.924;2022-11-03T08:45:54;8.30;99.90
1992;DHT22;997;48.448;8.924;2022-11-03T08:48:24;8.40;99.90
1992;DHT22;997;48.448;8.924;2022-11-03T08:50:54;8.40;99.90
1992;DHT22;997;48.448;8.924;2022-11-03T08:53:24;8.50;99.90
1992;DHT22;997;48.448;8.924;2022-11-03T08:55:50;8.40;99.90
1992;DHT22;997;48.448;8.924;2022-11-03T08:58:16;8.50;99.90
1992;DHT22;997;48.448;8.924;2022-11-03T09:00:42;8.60;99.90
1992;DHT22;997;48.448;8.924;2022-11-03T09:03:07;8.60;99.90
1992;DHT22;997;48.448;8.924;2022-11-03T09:05:33;8.70;99.90
1992;DHT22;997;48.448;8.924;2022-11-03T09:07:59;8.70;99.90
1992;DHT22;997;48.448;8.924;2022-11-03T09:10:25;8.70;99.90
1992;DHT22;997;48.448;8.924;2022-11-03T09:12:51;8.70;99.90
1992;DHT22;997;48.448;8.924;2022-11-03T09:15:17;8.70;99.90
1992;DHT22;997;48.448;8.924;2022-11-03T09:17:43;8.80;99.90
1992;DHT22;997;48.448;8.924;2022-11-03T09:20:09;8.80;99.90
1992;DHT22;997;48.448;8.924;2022-11-03T09:22:35;8.90;99.90
1992;DHT22;997;48.448;8.924;2022-11-03T09:25:01;9.00;99.90
1992;DHT22;997;48.448;8.924;2022-11-03T09:27:27;9.10;99.90
1992;DHT22;997;48.448;8.924;2022-11-03T09:29:52;9.20;99.90
1992;DHT22;997;48.448;8.924;2022-11-03T09:32:18;9.40;99.90
1992;DHT22;997;48.448;8.924;2022-11-03T09:34:44;9.60;99.90
1992;DHT22;997;48.448;8.924;2022-11-03T09:37:10;9.80;99.90
1992;DHT22;997;48.448;8.924;2022-11-03T09:39:35;9.80;99.90
1992;DHT22;997;48.448;8.924;2022-11-03T09:42:01;9.90;99.90
1992;DHT22;997;48.448;8.924;2022-11-03T09:44:31;10.10;99.90
1992;DHT22;997;48.448;8.924;2022-11-03T09:46:58;10.30;99.90
1992;DHT22;997;48.448;8.924;2022-11-03T09:49:24;10.50;99.90
1992;DHT22;997;48.448;8.924;2022-11-03T09:51:50;10.60;99.90
1992;DHT22;997;48.448;8.924;2022-11-03T09:54:18;10.70;99.90
1992;DHT22;997;48.448;8.924;2022-11-03T09:56:44;10.80;99.90
1992;DHT22;997;48.448;8.924;2022-11-03T09:59:19;10.90;99.90
1992;DHT22;997;48.448;8.924;2022-11-03T10:01:48;11.10;99.90
1992;DHT22;997;48.448;8.924;2022-11-03T10:04:24;11.20;99.90
1992;DHT22;997;48.448;8.924;2022-11-03T10:06:52;11.30;99.90
1992;DHT22;997;48.448;8.924;2022-11-03T10:09:18;11.40;99.90
1992;DHT22;997;48.448;8.924;2022-11-03T10:11:46;11.50;99.90
1992;DHT22;997;48.448;8.924;2022-11-03T10:14:13;11.50;99.90
1992;DHT22;997;48.448;8.924;2022-11-03T10:16:40;11.60;99.90
1992;DHT22;997;48.448;8.924;2022-11-03T10:19:13;11.70;99.90
1992;DHT22;997;48.448;8.924;2022-11-03T10:21:39;11.70;99.90
1992;DHT22;997;48.448;8.924;2022-11-03T10:24:08;11.90;99.90
1992;DHT22;997;48.448;8.924;2022-11-03T10:26:49;12.00;99.90
1992;DHT22;997;48.448;8.924;2022-11-03T10:29:26;12.10;99.90
1992;DHT22;997;48.448;8.924;2022-11-03T10:31:55;12.20;99.90
1992;DHT22;997;48.448;8.924;2022-11-03T10:34:30;12.30;99.90
1992;DHT22;997;48.448;8.924;2022-11-03T10:39:34;12.50;99.90
1992;DHT22;997;48.448;8.924;2022-11-03T10:41:59;12.60;99.90
1992;DHT22;997;48.448;8.924;2022-11-03T10:44:27;12.70;99.90
1992;DHT22;997;48.448;8.924;2022-11-03T10:47:02;12.90;99.90
1992;DHT22;997;48.448;8.924;2022-11-03T10:49:32;12.90;99.90
1992;DHT22;997;48.448;8.924;2022-11-03T10:52:26;13.00;99.90
1992;DHT22;997;48.448;8.924;2022-11-03T10:54:56;13.00;99.90
1992;DHT22;997;48.448;8.924;2022-11-03T10:57:23;13.20;99.90
1992;DHT22;997;48.448;8.924;2022-11-03T10:59:50;13.20;99.90
1992;DHT22;997;48.448;8.924;2022-11-03T11:02:19;13.20;99.90
1992;DHT22;997;48.448;8.924;2022-11-03T11:04:47;13.30;99.90
1992;DHT22;997;48.448;8.924;2022-11-03T11:07:34;13.40;99.90
1992;DHT22;997;48.448;8.924;2022-11-03T11:10:06;13.50;99.90
1992;DHT22;997;48.448;8.924;2022-11-03T11:12:33;13.60;99.90
1992;DHT22;997;48.448;8.924;2022-11-03T11:15:00;13.70;99.90
1992;DHT22;997;48.448;8.924;2022-11-03T11:22:53;14.00;99.90
1992;DHT22;997;48.448;8.924;2022-11-03T11:25:19;14.00;99.90
1992;DHT22;997;48.448;8.924;2022-11-03T11:37:49;14.50;99.90
1992;DHT22;997;48.448;8.924;2022-11-03T11:48:34;14.40;99.90
1992;DHT22;997;48.448;8.924;2022-11-03T11:51:01;14.30;99.90
1992;DHT22;997;48.448;8.924;2022-11-03T11:53:33;14.30;99.90
1992;DHT22;997;48.448;8.924;2022-11-03T11:56:01;14.10;99.90
1992;DHT22;997;48.448;8.924;2022-11-03T11:58:42;13.60;99.90
1992;DHT22;997;48.448;8.924;2022-11-03T12:03:43;12.70;99.90
1992;DHT22;997;48.448;8.924;2022-11-03T12:06:14;12.40;99.90
1992;DHT22;997;48.448;8.924;2022-11-03T12:08:41;12.30;99.90
1992;DHT22;997;48.448;8.924;2022-11-03T12:11:08;12.20;99.90
1992;DHT22;997;48.448;8.924;2022-11-03T12:13:48;12.20;99.90
1992;DHT22;997;48.448;8.924;2022-11-03T12:16:35;12.30;99.90
1992;DHT22;997;48.448;8.924;2022-11-03T12:22:02;12.40;99.90
1992;DHT22;997;48.448;8.924;2022-11-03T12:27:00;12.50;99.90
1992;DHT22;997;48.448;8.924;2022-11-03T12:29:26;12.50;99.90
1992;DHT22;997;48.448;8.924;2022-11-03T12:31:52;12.50;99.90
1992;DHT22;997;48.448;8.924;2022-11-03T12:34:18;12.50;99.90
1992;DHT22;997;48.448;8.924;2022-11-03T12:36:45;12.70;99.90
1992;DHT22;997;48.448;8.924;2022-11-03T12:39:11;12.80;99.90
1992;DHT22;997;48.448;8.924;2022-11-03T12:41:37;13.00;99.90
1992;DHT22;997;48.448;8.924;2022-11-03T12:44:03;13.20;99.90
1992;DHT22;997;48.448;8.924;2022-11-03T12:46:29;13.50;99.90
1992;DHT22;997;48.448;8.924;2022-11-03T12:48:55;13.70;99.90
1992;DHT22;997;48.448;8.924;2022-11-03T12:51:22;13.90;99.90
1992;DHT22;997;48.448;8.924;2022-11-03T12:53:48;14.10;99.90
1992;DHT22;997;48.448;8.924;2022-11-03T12:56:15;14.10;99.90
1992;DHT22;997;48.448;8.924;2022-11-03T12:58:41;14.30;99.90
1992;DHT22;997;48.448;8.924;2022-11-03T13:01:07;14.30;99.90
1992;DHT22;997;48.448;8.924;2022-11-03T13:03:34;14.10;99.90
1992;DHT22;997;48.448;8.924;2022-11-03T13:06:01;13.90;99.90
1992;DHT22;997;48.448;8.924;2022-11-03T13:08:32;13.60;99.90
1992;DHT22;997;48.448;8.924;2022-11-03T13:10:58;13.50;99.90
1992;DHT22;997;48.448;8.924;2022-11-03T13:13:24;13.40;99.90
1992;DHT22;997;48.448;8.924;2022-11-03T13:15:49;13.30;99.90
1992;DHT22;997;48.448;8.924;2022-11-03T13:18:17;13.20;99.90
1992;DHT22;997;48.448;8.924;2022-11-03T13:20:44;13.10;99.90
1992;DHT22;997;48.448;8.924;2022-11-03T13:23:10;13.10;99.90
1992;DHT22;997;48.448;8.924;2022-11-03T13:25:36;13.10;99.90
1992;DHT22;997;48.448;8.924;2022-11-03T13:28:02;12.90;99.90
1992;DHT22;997;48.448;8.924;2022-11-03T13:30:29;12.90;99.90
1992;DHT22;997;48.448;8.924;2022-11-03T13:32:55;12.90;99.90
1992;DHT22;997;48.448;8.924;2022-11-03T13:35:21;13.00;99.90
1992;DHT22;997;48.448;8.924;2022-11-03T13:37:47;13.10;99.90
1992;DHT22;997;48.448;8.924;2022-11-03T13:40:14;13.20;99.90
1992;DHT22;997;48.448;8.924;2022-11-03T13:42:40;13.30;99.90
1992;DHT22;997;48.448;8.924;2022-11-03T13:45:06;13.40;99.90
1992;DHT22;997;48.448;8.924;2022-11-03T13:47:33;13.70;99.90
1992;DHT22;997;48.448;8.924;2022-11-03T13:49:59;13.90;99.90
1992;DHT22;997;48.448;8.924;2022-11-03T13:52:25;14.10;99.90
1992;DHT22;997;48.448;8.924;2022-11-03T13:54:51;14.20;99.90
1992;DHT22;997;48.448;8.924;2022-11-03T13:57:17;14.30;99.90
1992;DHT22;997;48.448;8.924;2022-11-03T13:59:43;14.30;99.90
1992;DHT22;997;48.448;8.924;2022-11-03T14:02:09;14.10;99.90
1992;DHT22;997;48.448;8.924;2022-11-03T14:04:35;14.00;99.90
1992;DHT22;997;48.448;8.924;2022-11-03T14:07:03;13.90;99.90
1992;DHT22;997;48.448;8.924;2022-11-03T14:09:29;14.10;99.90
1992;DHT22;997;48.448;8.924;2022-11-03T14:11:55;14.20;99.90
1992;DHT22;997;48.448;8.924;2022-11-03T14:14:39;14.30;99.90
1992;DHT22;997;48.448;8.924;2022-11-03T14:17:05;13.90;99.90
1992;DHT22;997;48.448;8.924;2022-11-03T14:19:31;13.60;99.90
1992;DHT22;997;48.448;8.924;2022-11-03T14:21:56;13.20;99.90
1992;DHT22;997;48.448;8.924;2022-11-03T14:24:22;12.80;99.90
1992;DHT22;997;48.448;8.924;2022-11-03T14:26:48;12.60;99.90
1992;DHT22;997;48.448;8.924;2022-11-03T14:29:14;12.40;99.90
1992;DHT22;997;48.448;8.924;2022-11-03T14:31:39;12.60;99.90
1992;DHT22;997;48.448;8.924;2022-11-03T14:34:05;12.70;99.90
1992;DHT22;997;48.448;8.924;2022-11-03T14:36:30;12.80;99.90
1992;DHT22;997;48.448;8.924;2022-11-03T14:38:56;12.80;99.90
1992;DHT22;997;48.448;8.924;2022-11-03T14:41:22;12.90;99.90
1992;DHT22;997;48.448;8.924;2022-11-03T14:44:06;13.10;99.90
1992;DHT22;997;48.448;8.924;2022-11-03T14:46:32;13.20;99.90
1992;DHT22;997;48.448;8.924;2022-11-03T14:48:57;13.30;99.90
1992;DHT22;997;48.448;8.924;2022-11-03T14:51:26;13.40;99.90
1992;DHT22;997;48.448;8.924;2022-11-03T14:53:52;13.40;99.90
1992;DHT22;997;48.448;8.924;2022-11-03T14:56:18;13.40;99.90
1992;DHT22;997;48.448;8.924;2022-11-03T14:58:43;13.50;99.90
1992;DHT22;997;48.448;8.924;2022-11-03T15:01:09;13.50;99.90
1992;DHT22;997;48.448;8.924;2022-11-03T15:03:35;13.70;99.90
1992;DHT22;997;48.448;8.924;2022-11-03T15:06:00;13.70;99.90
1992;DHT22;997;48.448;8.924;2022-11-03T15:08:26;13.70;99.90
1992;DHT22;997;48.448;8.924;2022-11-03T15:10:53;13.70;99.90
1992;DHT22;997;48.448;8.924;2022-11-03T15:13:19;13.60;99.90
1992;DHT22;997;48.448;8.924;2022-11-03T15:15:45;13.50;99.90
1992;DHT22;997;48.448;8.924;2022-11-03T15:18:10;13.30;99.90
1992;DHT22;997;48.448;8.924;2022-11-03T15:20:36;13.10;99.90
1992;DHT22;997;48.448;8.924;2022-11-03T15:23:03;13.00;99.90
1992;DHT22;997;48.448;8.924;2022-11-03T15:25:30;13.00;99.90
1992;DHT22;997;48.448;8.924;2022-11-03T15:27:55;12.90;99.90
1992;DHT22;997;48.448;8.924;2022-11-03T15:30:21;12.50;99.90
1992;DHT22;997;48.448;8.924;2022-11-03T15:32:47;12.20;99.90
1992;DHT22;997;48.448;8.924;2022-11-03T15:35:12;12.00;99.90
1992;DHT22;997;48.448;8.924;2022-11-03T15:37:38;12.20;99.90
1992;DHT22;997;48.448;8.924;2022-11-03T15:40:05;12.30;99.90
1992;DHT22;997;48.448;8.924;2022-11-03T15:42:31;12.30;99.90
1992;DHT22;997;48.448;8.924;2022-11-03T15:44:57;12.40;99.90
1992;DHT22;997;48.448;8.924;2022-11-03T15:47:23;12.40;99.90
1992;DHT22;997;48.448;8.924;2022-11-03T15:49:49;12.30;99.90
1992;DHT22;997;48.448;8.924;2022-11-03T15:52:14;12.20;99.90
1992;DHT22;997;48.448;8.924;2022-11-03T15:54:40;12.50;99.90
1992;DHT22;997;48.448;8.924;2022-11-03T15:57:06;12.50;99.90
1992;DHT22;997;48.448;8.924;2022-11-03T15:59:31;12.50;99.90
1992;DHT22;997;48.448;8.924;2022-11-03T16:01:57;12.30;99.90
1992;DHT22;997;48.448;8.924;2022-11-03T16:04:23;12.20;99.90
1992;DHT22;997;48.448;8.924;2022-11-03T16:06:48;12.10;99.90
1992;DHT22;997;48.448;8.924;2022-11-03T16:09:14;12.00;99.90
1992;DHT22;997;48.448;8.924;2022-11-03T16:11:40;12.10;99.90
1992;DHT22;997;48.448;8.924;2022-11-03T16:14:06;12.20;99.90
1992;DHT22;997;48.448;8.924;2022-11-03T16:16:31;12.20;99.90
1992;DHT22;997;48.448;8.924;2022-11-03T16:18:57;12.30;99.90
1992;DHT22;997;48.448;8.924;2022-11-03T16:21:22;12.40;99.90
1992;DHT22;997;48.448;8.924;2022-11-03T16:23:48;12.40;99.90
1992;DHT22;997;48.448;8.924;2022-11-03T16:26:14;12.40;99.90
1992;DHT22;997;48.448;8.924;2022-11-03T16:28:40;12.40;99.90
1992;DHT22;997;48.448;8.924;2022-11-03T16:31:05;12.40;99.90
1992;DHT22;997;48.448;8.924;2022-11-03T16:33:31;12.60;99.90
1992;DHT22;997;48.448;8.924;2022-11-03T16:35:57;12.70;99.90
1992;DHT22;997;48.448;8.924;2022-11-03T16:38:22;12.90;99.90
1992;DHT22;997;48.448;8.924;2022-11-03T16:40:48;12.90;99.90
1992;DHT22;997;48.448;8.924;2022-11-03T16:43:14;12.80;99.90
1992;DHT22;997;48.448;8.924;2022-11-03T16:45:39;12.60;99.90
1992;DHT22;997;48.448;8.924;2022-11-03T16:48:05;12.80;99.90
1992;DHT22;997;48.448;8.924;2022-11-03T16:50:31;12.90;99.90
1992;DHT22;997;48.448;8.924;2022-11-03T16:52:57;12.90;99.90
1992;DHT22;997;48.448;8.924;2022-11-03T16:55:23;12.90;99.90
1992;DHT22;997;48.448;8.924;2022-11-03T16:57:48;13.00;99.90
1992;DHT22;997;48.448;8.924;2022-11-03T17:00:16;13.00;99.90
1992;DHT22;997;48.448;8.924;2022-11-03T17:02:43;13.10;99.90
1992;DHT22;997;48.448;8.924;2022-11-03T17:05:10;12.80;99.90
1992;DHT22;997;48.448;8.924;2022-11-03T17:07:37;12.70;99.90
1992;DHT22;997;48.448;8.924;2022-11-03T17:10:07;12.80;99.90
1992;DHT22;997;48.448;8.924;2022-11-03T17:12:32;12.90;99.90
1992;DHT22;997;48.448;8.924;2022-11-03T17:14:58;13.00;99.90
1992;DHT22;997;48.448;8.924;2022-11-03T17:17:24;13.00;99.90
1992;DHT22;997;48.448;8.924;2022-11-03T17:19:50;13.10;99.90
1992;DHT22;997;48.448;8.924;2022-11-03T17:22:15;13.10;99.90
1992;DHT22;997;48.448;8.924;2022-11-03T17:24:41;13.10;99.90
1992;DHT22;997;48.448;8.924;2022-11-03T17:29:53;13.10;99.90
1992;DHT22;997;48.448;8.924;2022-11-03T17:32:45;13.10;99.90
1992;DHT22;997;48.448;8.924;2022-11-03T17:35:39;13.20;99.90
1992;DHT22;997;48.448;8.924;2022-11-03T17:38:10;13.30;99.90
1992;DHT22;997;48.448;8.924;2022-11-03T17:40:39;13.30;99.90
1992;DHT22;997;48.448;8.924;2022-11-03T17:43:20;13.30;99.90
1992;DHT22;997;48.448;8.924;2022-11-03T17:45:47;13.40;99.90
1992;DHT22;997;48.448;8.924;2022-11-03T17:48:13;13.40;99.90
1992;DHT22;997;48.448;8.924;2022-11-03T17:50:45;13.40;99.90
1992;DHT22;997;48.448;8.924;2022-11-03T17:53:31;13.40;99.90
1992;DHT22;997;48.448;8.924;2022-11-03T17:55:59;13.40;99.90
1992;DHT22;997;48.448;8.924;2022-11-03T17:58:35;13.50;99.90
1992;DHT22;997;48.448;8.924;2022-11-03T18:01:02;13.50;99.90
1992;DHT22;997;48.448;8.924;2022-11-03T18:03:29;13.50;99.90
1992;DHT22;997;48.448;8.924;2022-11-03T18:05:55;13.40;99.90
1992;DHT22;997;48.448;8.924;2022-11-03T18:08:21;13.10;99.90
1992;DHT22;997;48.448;8.924;2022-11-03T18:10:49;12.90;99.90
1992;DHT22;997;48.448;8.924;2022-11-03T18:13:30;12.80;99.90
1992;DHT22;997;48.448;8.924;2022-11-03T18:16:07;12.50;99.90
1992;DHT22;997;48.448;8.924;2022-11-03T18:18:38;12.40;99.90
1992;DHT22;997;48.448;8.924;2022-11-03T18:21:10;12.40;99.90
1992;DHT22;997;48.448;8.924;2022-11-03T18:23:37;12.40;99.90
1992;DHT22;997;48.448;8.924;2022-11-03T18:26:12;12.40;99.90
1992;DHT22;997;48.448;8.924;2022-11-03T18:28:39;12.40;99.90
1992;DHT22;997;48.448;8.924;2022-11-03T18:31:12;12.40;99.90
1992;DHT22;997;48.448;8.924;2022-11-03T18:33:40;12.30;99.90
1992;DHT22;997;48.448;8.924;2022-11-03T18:36:06;12.20;99.90
1992;DHT22;997;48.448;8.924;2022-11-03T18:38:34;12.10;99.90
1992;DHT22;997;48.448;8.924;2022-11-03T18:41:01;12.30;99.90
1992;DHT22;997;48.448;8.924;2022-11-03T18:43:27;12.40;99.90
1992;DHT22;997;48.448;8.924;2022-11-03T18:45:53;12.50;99.90
1992;DHT22;997;48.448;8.924;2022-11-03T18:48:19;12.50;99.90
1992;DHT22;997;48.448;8.924;2022-11-03T18:50:53;12.50;99.90
1992;DHT22;997;48.448;8.924;2022-11-03T18:53:21;12.50;99.90
1992;DHT22;997;48.448;8.924;2022-11-03T18:55:48;12.60;99.90
1992;DHT22;997;48.448;8.924;2022-11-03T18:58:20;12.70;99.90
1992;DHT22;997;48.448;8.924;2022-11-03T19:00:46;12.70;99.90
1992;DHT22;997;48.448;8.924;2022-11-03T19:03:17;12.70;99.90
1992;DHT22;997;48.448;8.924;2022-11-03T19:05:44;12.80;99.90
1992;DHT22;997;48.448;8.924;2022-11-03T19:08:28;12.80;99.90
1992;DHT22;997;48.448;8.924;2022-11-03T19:10:55;12.80;99.90
1992;DHT22;997;48.448;8.924;2022-11-03T19:13:31;12.90;99.90
1992;DHT22;997;48.448;8.924;2022-11-03T19:15:59;12.90;99.90
1992;DHT22;997;48.448;8.924;2022-11-03T19:18:26;12.90;99.90
1992;DHT22;997;48.448;8.924;2022-11-03T19:20:52;12.90;99.90
1992;DHT22;997;48.448;8.924;2022-11-03T19:23:18;13.00;99.90
1992;DHT22;997;48.448;8.924;2022-11-03T19:25:44;13.10;99.90
1992;DHT22;997;48.448;8.924;2022-11-03T19:28:17;13.10;99.90
1992;DHT22;997;48.448;8.924;2022-11-03T19:30:44;13.00;99.90
1992;DHT22;997;48.448;8.924;2022-11-03T19:33:20;13.10;99.90
1992;DHT22;997;48.448;8.924;2022-11-03T19:35:46;13.00;99.90
1992;DHT22;997;48.448;8.924;2022-11-03T19:38:15;13.00;99.90
1992;DHT22;997;48.448;8.924;2022-11-03T19:40:41;12.90;99.90
1992;DHT22;997;48.448;8.924;2022-11-03T19:43:30;12.90;99.90
1992;DHT22;997;48.448;8.924;2022-11-03T19:45:56;12.80;99.90
1992;DHT22;997;48.448;8.924;2022-11-03T19:48:22;12.90;99.90
1992;DHT22;997;48.448;8.924;2022-11-03T19:50:48;12.80;99.90
1992;DHT22;997;48.448;8.924;2022-11-03T19:53:26;12.70;99.90
1992;DHT22;997;48.448;8.924;2022-11-03T19:55:53;12.70;99.90
1992;DHT22;997;48.448;8.924;2022-11-03T19:58:22;12.70;99.90
1992;DHT22;997;48.448;8.924;2022-11-03T20:00:48;12.70;99.90
1992;DHT22;997;48.448;8.924;2022-11-03T20:03:15;12.90;99.90
1992;DHT22;997;48.448;8.924;2022-11-03T20:05:41;12.90;99.90
1992;DHT22;997;48.448;8.924;2022-11-03T20:08:12;12.90;99.90
1992;DHT22;997;48.448;8.924;2022-11-03T20:10:39;12.80;99.90
1992;DHT22;997;48.448;8.924;2022-11-03T20:13:07;12.90;99.90
1992;DHT22;997;48.448;8.924;2022-11-03T20:15:32;12.90;99.90
1992;DHT22;997;48.448;8.924;2022-11-03T20:17:58;12.90;99.90
1992;DHT22;997;48.448;8.924;2022-11-03T20:20:24;12.90;99.90
1992;DHT22;997;48.448;8.924;2022-11-03T20:22:57;12.90;99.90
1992;DHT22;997;48.448;8.924;2022-11-03T20:25:26;12.90;99.90
1992;DHT22;997;48.448;8.924;2022-11-03T20:27:53;12.80;99.90
1992;DHT22;997;48.448;8.924;2022-11-03T20:30:22;12.60;99.90
1992;DHT22;997;48.448;8.924;2022-11-03T20:32:48;12.40;99.90
1992;DHT22;997;48.448;8.924;2022-11-03T20:35:25;12.30;99.90
1992;DHT22;997;48.448;8.924;2022-11-03T20:37:55;12.20;99.90
1992;DHT22;997;48.448;8.924;2022-11-03T20:40:22;11.90;99.90
1992;DHT22;997;48.448;8.924;2022-11-03T20:42:54;11.90;99.90
1992;DHT22;997;48.448;8.924;2022-11-03T20:45:21;11.80;99.90
1992;DHT22;997;48.448;8.924;2022-11-03T20:47:48;11.70;99.90
1992;DHT22;997;48.448;8.924;2022-11-03T20:50:15;11.60;99.90
1992;DHT22;997;48.448;8.924;2022-11-03T20:52:42;11.60;99.90
1992;DHT22;997;48.448;8.924;2022-11-03T20:55:20;11.50;99.90
1992;DHT22;997;48.448;8.924;2022-11-03T20:57:47;11.40;99.90
1992;DHT22;997;48.448;8.924;2022-11-03T21:00:16;11.30;99.90
1992;DHT22;997;48.448;8.924;2022-11-03T21:02:44;11.20;99.90
1992;DHT22;997;48.448;8.924;2022-11-03T21:07:43;11.20;99.90
1992;DHT22;997;48.448;8.924;2022-11-03T21:10:10;11.20;99.90
1992;DHT22;997;48.448;8.924;2022-11-03T21:12:36;11.30;99.90
1992;DHT22;997;48.448;8.924;2022-11-03T21:15:03;11.50;99.90
1992;DHT22;997;48.448;8.924;2022-11-03T21:17:52;11.60;99.90
1992;DHT22;997;48.448;8.924;2022-11-03T21:20:37;11.60;99.90
1992;DHT22;997;48.448;8.924;2022-11-03T21:23:08;11.70;99.90
1992;DHT22;997;48.448;8.924;2022-11-03T21:25:38;11.70;99.90
1992;DHT22;997;48.448;8.924;2022-11-03T21:28:03;11.70;99.90
1992;DHT22;997;48.448;8.924;2022-11-03T21:30:29;11.70;99.90
1992;DHT22;997;48.448;8.924;2022-11-03T21:32:55;11.80;99.90